Pas de vigilance météorologique particulière.   -   Il n'y a aucun avertissement

Nearby METAR Reports

 

LEZL - Sevilla, Spain
Distance from station: ENE 8km
Mise jour: 22/01/2019 13:30
Few Clouds
Few Clouds
 Wind from NO
Vent: NO 20 km/h
Temprature: 14°C
Point de rose: 5°C
Humidit: 55%
Baromtre: 1021 hPa
Clouds: Few Clouds
Visibility: 10 km
Cloud details: Few Clouds 914 m
2019/01/22 12:30 LEZL 221230Z 31011KT 280V350 9999 FEW030 14/05 Q1021 NOSIG
LEMO - Morn, Spain
Distance from station: SE 43km
Mise jour: 22/01/2019 13:00
clair
clair
 Wind from OSO
Vent: OSO 20 km/h
Temprature: 10°C
Facteur Vent: 7°C
Point de rose: 6°C
Humidit: 76%
Baromtre: 1022 hPa
Rsum: clair
Visibility: greater than 10 km
2019/01/22 12:00 LEMO 221200Z 25011KT 220V280 CAVOK 10/06 Q1022 NOSIG
LEJR - Jerz, Spain
Distance from station: S 71km
Mise jour: 22/01/2019 13:30
Few Clouds
Few Clouds
 Wind from ONO
Vent: ONO 31 km/h
Temprature: 13°C
Point de rose: 7°C
Humidit: 67%
Baromtre: 1022 hPa
Clouds: Few Clouds
Visibility: 10 km
Cloud details: Few Clouds 1067 m
2019/01/22 12:30 LEJR 221230Z 30017KT 260V330 9999 FEW035 13/07 Q1022
 
LERT - Rota, Spain
Distance from station: SSO 89km
Mise jour: 22/01/2019 13:00
Few Clouds
Few Clouds
 Wind from NO
Vent: NO 28 km/h
Temprature: 13°C
Point de rose: 8°C
Humidit: 72%
Baromtre: 1023 hPa
Clouds: Few Clouds
Visibility: 10 km
Cloud details: Few Clouds 914 m
2019/01/22 12:00 LERT 221200Z 31015KT 280V340 9999 FEW030 13/08 Q1023 NOSIG
LEMG - Mlaga, Spain
Distance from station: ESE 157km
Mise jour: 22/01/2019 13:30
Few Clouds
Few Clouds
 Wind from ONO
Vent: ONO 22 km/h
Temprature: 15°C
Point de rose: 2°C
Humidit: 42%
Baromtre: 1019 hPa
Clouds: Few Clouds
Visibility: 10 km
Cloud details: Few Clouds 1829 m
2019/01/22 12:30 LEMG 221230Z 29012KT 260V330 9999 FEW060 15/02 Q1019 NOSIG
LEBA - Crdoba, Spain
Distance from station: ENE 115km
Mise jour: 22/01/2019 13:30
clair
clair
 Wind from O
Vent: O 9 km/h
Temprature: 8°C
Facteur Vent: 6°C
Point de rose: 4°C
Humidit: 76%
Baromtre: 1021 hPa
Rsum: clair
Visibility: greater than 10 km
2019/01/22 12:30 LEBA 221230Z 26005KT 230V290 CAVOK 08/04 Q1021
 
LEGR - Granada, Spain
Distance from station: E 198km
Mise jour: 22/01/2019 13:30
nuageux
nuageux
 Wind from calm
Vent: calme
Temprature: 6°C
Point de rose: 2°C
Humidit: 76%
Baromtre: 1019 hPa
Clouds: nuageux
Visibility: 10 km
Cloud details: nuageux 1524 m
2019/01/22 12:30 LEGR 221230Z 00000KT 9999 BKN050 06/02 Q1019
LEAM - Almera, Spain
Distance from station: E 326km
Mise jour: 22/01/2019 13:30
clair
clair
 Wind from SSE
Vent: SSE 6 km/h
Temprature: 14°C
Point de rose: 0°C
Humidit: 39%
Baromtre: 1016 hPa
Rsum: clair
Visibility: greater than 10 km
2019/01/22 12:30 LEAM 221230Z 16003KT 110V190 CAVOK 14/00 Q1016
LEMD - Madrid/Barajas, Spain
Distance from station: NNE 402km
Mise jour: 22/01/2019 13:30
clair
clair
 Wind from O
Vent: O 20 km/h, Rafale: 41 km/h
Temprature: 8°C
Facteur Vent: 4°C
Point de rose: 1°C
Humidit: 62%
Baromtre: 1015 hPa
Rsum: clair
Visibility: greater than 10 km
2019/01/22 12:30 LEMD 221230Z 27011G22KT 240V300 CAVOK 08/01 Q1015 NOSIG
 
LEVD - Valladolid, Spain
Distance from station: N 492km
Mise jour: 22/01/2019 13:30
nuageux
nuageux
 Wind from OSO
Vent: OSO 24 km/h
Temprature: 4°C
Facteur Vent: -1°C
Point de rose: 3°C
Humidit: 93%
Baromtre: 1015 hPa
Clouds: nuageux
Visibility: 10 km
Cloud details: partiellement nuageux 183 m
nuageux 823 m
2019/01/22 12:30 LEVD 221230Z 25013KT 9999 SCT006 BKN027 04/03 Q1015
LEBL - Barcelona, Spain
Distance from station: NE 816km
Mise jour: 22/01/2019 13:30
clair
clair
 Wind from NNO
Vent: NNO 20 km/h
Temprature: 8°C
Facteur Vent: 4°C
Point de rose: 0°C
Humidit: 57%
Baromtre: 1011 hPa
Rsum: clair
Visibility: greater than 10 km
2019/01/22 12:30 LEBL 221230Z 33011KT 310V010 CAVOK 08/M00 Q1011 NOSIG
LEVC - Valencia, Spain
Distance from station: ENE 535km
Mise jour: 22/01/2019 13:30
Few Clouds
Few Clouds
 Wind from O
Vent: O 20 km/h
Temprature: 13°C
Point de rose: -4°C
Humidit: 31%
Baromtre: 1013 hPa
Clouds: Few Clouds
Visibility: 10 km
Cloud details: Few Clouds 914 m
2019/01/22 12:30 LEVC 221230Z 28011KT 9999 FEW030 13/M04 Q1013 NOSIG